Time;durP1;ratioP1;P1;durP2;ratioP2;P2;SDS_P1;SDS_P2;PMS_P1;PMS_P2;Temp;Humidity;BMP_temperature;BMP_pressure;BME280_temperature;BME280_humidity;BME280_pressure;Samples;Min_cycle;Max_cycle;Signal;HPM_P1;HPM_P2
2022/11/16 00:00:15;;;;;;;;;;;;;;;;;;5032085;28;19913;-62
2022/11/16 00:02:40;;;;;;;;;;;;;;;;;;5032101;28;20439;-61
2022/11/16 00:05:06;;;;;;;;;;;;;;;;;;5032289;28;19909;-62
2022/11/16 00:07:32;;;;;;;;;;;;;;;;;;5032476;28;20285;-62
2022/11/16 00:09:58;;;;;;;;;;;;;;;;;;5032186;28;19913;-62
2022/11/16 00:12:24;;;;;;;;;;;;;;;;;;5031766;28;20495;-62
2022/11/16 00:14:50;;;;;;;;;;;;;;;;;;5031475;28;19917;-62
2022/11/16 00:17:16;;;;;;;;;;;;;;;;;;5031882;28;19931;-62
2022/11/16 00:19:42;;;;;;;;;;;;;;;;;;5031873;28;19913;-63
2022/11/16 00:22:08;;;;;;;;;;;;;;;;;;5031596;28;19913;-62
2022/11/16 00:24:34;;;;;;;;;;;;;;;;;;5031691;28;19916;-62
2022/11/16 00:27:00;;;;;;;;;;;;;;;;;;5031376;28;19917;-61
2022/11/16 00:29:26;;;;;;;;;;;;;;;;;;5031475;28;19979;-62
2022/11/16 00:31:52;;;;;;;;;;;;;;;;;;5031385;28;19929;-61
2022/11/16 00:34:18;;;;;;;;;;;;;;;;;;5031186;28;19920;-63
2022/11/16 00:36:44;;;;;;;;;;;;;;;;;;5031263;28;19924;-62
2022/11/16 00:39:10;;;;;;;;;;;;;;;;;;5030865;28;20354;-62
2022/11/16 00:41:36;;;;;;;;;;;;;;;;;;5031744;28;19920;-63
2022/11/16 00:44:02;;;;;;;;;;;;;;;;;;5013234;28;19913;-62
2022/11/16 00:46:28;;;;;;;;;;;;;;;;;;5031664;28;19936;-63
2022/11/16 00:48:53;;;;;;;;;;;;;;;;;;5030935;28;19917;-62
2022/11/16 00:51:19;;;;;;;;;;;;;;;;;;5031135;28;19940;-63
2022/11/16 00:53:45;;;;;;;;;;;;;;;;;;5030714;28;20588;-62
2022/11/16 00:56:11;;;;;;;;;;;;;;;;;;5030715;28;19947;-62
2022/11/16 00:58:37;;;;;;;;;;;;;;;;;;5031916;28;20719;-62
2022/11/16 01:01:03;;;;;;;;;;;;;;;;;;5031075;28;20621;-62
2022/11/16 01:03:29;;;;;;;;;;;;;;;;;;5030660;28;19916;-62
2022/11/16 01:05:55;;;;;;;;;;;;;;;;;;5030692;28;20000;-63
2022/11/16 01:08:20;;;;;;;;;;;;;;;;;;5030622;28;19913;-62
2022/11/16 01:10:46;;;;;;;;;;;;;;;;;;5029941;28;19913;-62
2022/11/16 01:13:12;;;;;;;;;;;;;;;;;;5029704;28;19967;-61
2022/11/16 01:15:38;;;;;;;;;;;;;;;;;;5030909;28;19917;-63
2022/11/16 01:18:04;;;;;;;;;;;;;;;;;;5024052;28;20594;-62
2022/11/16 01:20:30;;;;;;;;;;;;;;;;;;5030153;28;19921;-62
2022/11/16 01:22:56;;;;;;;;;;;;;;;;;;5030561;28;20420;-62
2022/11/16 01:25:22;;;;;;;;;;;;;;;;;;5031364;28;19944;-61
2022/11/16 01:27:47;;;;;;;;;;;;;;;;;;5026345;28;20289;-62
2022/11/16 01:30:13;;;;;;;;;;;;;;;;;;5030382;28;19909;-64
2022/11/16 01:32:39;;;;;;;;;;;;;;;;;;5030262;28;19917;-62
2022/11/16 01:35:05;;;;;;;;;;;;;;;;;;5029277;28;20400;-61
2022/11/16 01:37:31;;;;;;;;;;;;;;;;;;5030696;28;19917;-62
2022/11/16 01:39:57;;;;;;;;;;;;;;;;;;5030353;28;19917;-62
2022/11/16 01:42:23;;;;;;;;;;;;;;;;;;5030311;28;19913;-63
2022/11/16 01:44:49;;;;;;;;;;;;;;;;;;5030482;28;20488;-62
2022/11/16 01:47:15;;;;;;;;;;;;;;;;;;5029818;28;19917;-62
2022/11/16 01:49:40;;;;;;;;;;;;;;;;;;5029825;28;19917;-62
2022/11/16 01:52:06;;;;;;;;;;;;;;;;;;5030105;28;19913;-62
2022/11/16 01:54:32;;;;;;;;;;;;;;;;;;5030047;28;19920;-62
2022/11/16 01:56:58;;;;;;;;;;;;;;;;;;5028355;28;19917;-62
2022/11/16 01:59:24;;;;;;;;;;;;;;;;;;5030326;28;20473;-62
2022/11/16 02:01:50;;;;;;;;;;;;;;;;;;5029805;28;19916;-62
2022/11/16 02:04:16;;;;;;;;;;;;;;;;;;5029583;28;19956;-63
2022/11/16 02:06:42;;;;;;;;;;;;;;;;;;5030101;28;19915;-63
2022/11/16 02:11:52;;;;;;;;;;;;;;;;;;5030014;28;19920;-61
2022/11/16 02:14:18;;;;;;;;;;;;;;;;;;5029445;28;19928;-62
2022/11/16 02:16:47;;;;;;;;;;;;;;;;;;5029834;28;20062;-62
2022/11/16 02:19:12;;;;;;;;;;;;;;;;;;5029187;28;20401;-63
2022/11/16 02:21:38;;;;;;;;;;;;;;;;;;5029401;28;19974;-62
2022/11/16 02:24:04;;;;;;;;;;;;;;;;;;5029488;28;19913;-62
2022/11/16 02:26:30;;;;;;;;;;;;;;;;;;5029293;28;20032;-63
2022/11/16 02:28:56;;;;;;;;;;;;;;;;;;5028981;28;19921;-62
2022/11/16 02:31:22;;;;;;;;;;;;;;;;;;5029274;28;20026;-62
2022/11/16 02:33:48;;;;;;;;;;;;;;;;;;5029432;28;19919;-61
2022/11/16 02:36:14;;;;;;;;;;;;;;;;;;5029134;28;19928;-62
2022/11/16 02:38:39;;;;;;;;;;;;;;;;;;5029357;28;19965;-62
2022/11/16 02:41:05;;;;;;;;;;;;;;;;;;5029270;28;19914;-61
2022/11/16 02:43:31;;;;;;;;;;;;;;;;;;5029537;28;19925;-63
2022/11/16 02:45:57;;;;;;;;;;;;;;;;;;5029418;28;19913;-62
2022/11/16 02:48:23;;;;;;;;;;;;;;;;;;5029027;28;20707;-63
2022/11/16 02:50:51;;;;;;;;;;;;;;;;;;5029617;28;19920;-63
2022/11/16 02:53:17;;;;;;;;;;;;;;;;;;5029442;28;20389;-63
2022/11/16 02:55:43;;;;;;;;;;;;;;;;;;5029195;28;19921;-62
2022/11/16 02:58:09;;;;;;;;;;;;;;;;;;5029036;28;19919;-63
2022/11/16 03:00:35;;;;;;;;;;;;;;;;;;5029338;28;19913;-62
2022/11/16 03:03:00;;;;;;;;;;;;;;;;;;5028359;28;19917;-63
2022/11/16 03:05:32;;;;;;;;;;;;;;;;;;5029463;28;19913;-62
2022/11/16 03:07:58;;;;;;;;;;;;;;;;;;5028878;28;20385;-62
2022/11/16 03:13:09;;;;;;;;;;;;;;;;;;5028464;28;19916;-62
2022/11/16 03:15:35;;;;;;;;;;;;;;;;;;5029124;28;19921;-62
2022/11/16 03:18:01;;;;;;;;;;;;;;;;;;5029172;28;19909;-62
2022/11/16 03:20:27;;;;;;;;;;;;;;;;;;5029162;28;20012;-62
2022/11/16 03:22:52;;;;;;;;;;;;;;;;;;5029182;28;19909;-62
2022/11/16 03:25:18;;;;;;;;;;;;;;;;;;5028886;28;19909;-62
2022/11/16 03:27:44;;;;;;;;;;;;;;;;;;5028518;28;19919;-62
2022/11/16 03:30:10;;;;;;;;;;;;;;;;;;5028773;28;19987;-61
2022/11/16 03:32:36;;;;;;;;;;;;;;;;;;5029029;28;20008;-62
2022/11/16 03:35:02;;;;;;;;;;;;;;;;;;5032983;28;19943;-62
2022/11/16 03:37:28;;;;;;;;;;;;;;;;;;5031868;28;19925;-62
2022/11/16 03:39:54;;;;;;;;;;;;;;;;;;5032342;28;20419;-61
2022/11/16 03:42:20;;;;;;;;;;;;;;;;;;5032812;28;19913;-61
2022/11/16 03:44:45;;;;;;;;;;;;;;;;;;5032268;28;19931;-61
2022/11/16 03:47:11;;;;;;;;;;;;;;;;;;5032398;28;19960;-61
2022/11/16 03:49:37;;;;;;;;;;;;;;;;;;5032543;28;19913;-61
2022/11/16 03:52:03;;;;;;;;;;;;;;;;;;5032085;28;19913;-61
2022/11/16 03:54:29;;;;;;;;;;;;;;;;;;5032496;28;19909;-61
2022/11/16 03:56:55;;;;;;;;;;;;;;;;;;5032224;28;20004;-62
2022/11/16 03:59:21;;;;;;;;;;;;;;;;;;5032241;28;19913;-60
2022/11/16 04:01:47;;;;;;;;;;;;;;;;;;5031930;28;19913;-62
2022/11/16 04:24:10;;;;;;;;;;;;;;;;;;5032217;28;19936;-62
2022/11/16 04:29:15;;;;;;;;;;;;;;;;;;4970334;28;20412;-62
2022/11/16 04:39:54;;;;;;;;;;;;;;;;;;4969865;28;19961;-62
2022/11/16 04:42:21;;;;;;;;;;;;;;;;;;4970625;28;19913;-62
2022/11/16 04:47:31;;;;;;;;;;;;;;;;;;5024733;28;19936;-61
2022/11/16 04:49:57;;;;;;;;;;;;;;;;;;5031290;28;19913;-62
2022/11/16 04:52:23;;;;;;;;;;;;;;;;;;5031274;28;19949;-62
2022/11/16 04:54:49;;;;;;;;;;;;;;;;;;5030963;28;19917;-62
2022/11/16 04:57:15;;;;;;;;;;;;;;;;;;5031274;28;19921;-61
2022/11/16 04:59:41;;;;;;;;;;;;;;;;;;5030871;28;20399;-63
2022/11/16 05:02:07;;;;;;;;;;;;;;;;;;5030539;28;20353;-62
2022/11/16 05:04:33;;;;;;;;;;;;;;;;;;5031259;28;19920;-62
2022/11/16 05:06:59;;;;;;;;;;;;;;;;;;5030904;28;20425;-62
2022/11/16 05:09:24;;;;;;;;;;;;;;;;;;5030836;28;19913;-63
2022/11/16 05:11:50;;;;;;;;;;;;;;;;;;5031343;28;19909;-62
2022/11/16 05:14:16;;;;;;;;;;;;;;;;;;5030647;28;19920;-63
2022/11/16 05:16:42;;;;;;;;;;;;;;;;;;5030744;28;19921;-62
2022/11/16 05:22:12;;;;;;;;;;;;;;;;;;4969560;28;19933;-61
2022/11/16 05:24:38;;;;;;;;;;;;;;;;;;4969199;28;19914;-62
2022/11/16 05:27:04;;;;;;;;;;;;;;;;;;4968903;28;20013;-62
2022/11/16 05:29:30;;;;;;;;;;;;;;;;;;4969606;28;20436;-62
2022/11/16 05:31:56;;;;;;;;;;;;;;;;;;4969514;28;20391;-62
2022/11/16 05:34:22;;;;;;;;;;;;;;;;;;4968778;28;19914;-62
2022/11/16 05:36:48;;;;;;;;;;;;;;;;;;4968709;28;19934;-61
2022/11/16 05:39:14;;;;;;;;;;;;;;;;;;4968980;28;20298;-62
2022/11/16 05:41:40;;;;;;;;;;;;;;;;;;4962550;28;20469;-62
2022/11/16 05:44:05;;;;;;;;;;;;;;;;;;4969079;28;19910;-62
2022/11/16 05:46:31;;;;;;;;;;;;;;;;;;4968634;28;19914;-61
2022/11/16 05:48:57;;;;;;;;;;;;;;;;;;4968718;28;19957;-62
2022/11/16 05:51:23;;;;;;;;;;;;;;;;;;4969139;28;20496;-62
2022/11/16 05:53:49;;;;;;;;;;;;;;;;;;5016069;28;19913;-62
2022/11/16 05:56:15;;;;;;;;;;;;;;;;;;5028564;28;19924;-62
2022/11/16 05:58:41;;;;;;;;;;;;;;;;;;5030510;28;19909;-61
2022/11/16 06:01:07;;;;;;;;;;;;;;;;;;5029731;28;19956;-62
2022/11/16 06:03:35;;;;;;;;;;;;;;;;;;5030002;28;19909;-62
2022/11/16 06:06:00;;;;;;;;;;;;;;;;;;5029837;28;19913;-62
2022/11/16 06:08:26;;;;;;;;;;;;;;;;;;5029039;28;19913;-62
2022/11/16 06:10:52;;;;;;;;;;;;;;;;;;5029552;28;19960;-62
2022/11/16 06:13:18;;;;;;;;;;;;;;;;;;5030008;28;19917;-63
2022/11/16 06:15:44;;;;;;;;;;;;;;;;;;5029391;28;19917;-62
2022/11/16 06:18:10;;;;;;;;;;;;;;;;;;5029311;28;19943;-62
2022/11/16 06:20:36;;;;;;;;;;;;;;;;;;5029509;28;19910;-62
2022/11/16 06:23:02;;;;;;;;;;;;;;;;;;5029732;28;19916;-62
2022/11/16 06:25:29;;;;;;;;;;;;;;;;;;5029362;28;19910;-62
2022/11/16 06:27:55;;;;;;;;;;;;;;;;;;5029261;28;19913;-62
2022/11/16 06:30:21;;;;;;;;;;;;;;;;;;5029889;28;19931;-62
2022/11/16 06:32:47;;;;;;;;;;;;;;;;;;5029320;28;19925;-61
2022/11/16 06:35:13;;;;;;;;;;;;;;;;;;5028968;28;19913;-62
2022/11/16 06:37:39;;;;;;;;;;;;;;;;;;5029188;28;19928;-63
2022/11/16 06:40:04;;;;;;;;;;;;;;;;;;5029078;28;20039;-62
2022/11/16 06:42:30;;;;;;;;;;;;;;;;;;5029542;28;19913;-62
2022/11/16 06:44:56;;;;;;;;;;;;;;;;;;5029452;28;19917;-61
2022/11/16 06:47:22;;;;;;;;;;;;;;;;;;5022878;28;20361;-60
2022/11/16 06:49:48;;;;;;;;;;;;;;;;;;5028745;28;19913;-62
2022/11/16 06:52:14;;;;;;;;;;;;;;;;;;5029359;28;20294;-67
2022/11/16 06:54:40;;;;;;;;;;;;;;;;;;5028927;28;19914;-69
2022/11/16 06:57:06;;;;;;;;;;;;;;;;;;5029023;28;19979;-69
2022/11/16 06:59:32;;;;;;;;;;;;;;;;;;5029540;28;19913;-78
2022/11/16 07:01:57;;;;;;;;;;;;;;;;;;5029152;28;19960;-78
2022/11/16 07:04:23;;;;;;;;;;;;;;;;;;5026458;28;19917;-80
2022/11/16 07:06:49;;;;;;;;;;;;;;;;;;5022458;28;19913;-80
2022/11/16 07:09:15;;;;;;;;;;;;;;;;;;5031031;28;20023;-78
2022/11/16 07:11:41;;;;;;;;;;;;;;;;;;5033130;28;19924;-77
2022/11/16 07:14:07;;;;;;;;;;;;;;;;;;5033353;28;19920;-75
2022/11/16 07:16:34;;;;;;;;;;;;;;;;;;5028807;28;20309;-77
2022/11/16 07:19:00;;;;;;;;;;;;;;;;;;5032449;28;20310;-76
2022/11/16 07:21:26;;;;;;;;;;;;;;;;;;5032426;28;19960;-77
2022/11/16 07:23:52;;;;;;;;;;;;;;;;;;5032544;28;20661;-76
2022/11/16 07:26:18;;;;;;;;;;;;;;;;;;5032326;28;19917;-77
2022/11/16 07:28:44;;;;;;;;;;;;;;;;;;5032783;28;19996;-75
2022/11/16 07:31:10;;;;;;;;;;;;;;;;;;5032157;28;20294;-75
2022/11/16 07:33:36;;;;;;;;;;;;;;;;;;5028855;28;19944;-76
2022/11/16 07:36:02;;;;;;;;;;;;;;;;;;5031317;28;20687;-76
2022/11/16 07:38:27;;;;;;;;;;;;;;;;;;5025261;28;19917;-75
2022/11/16 07:40:53;;;;;;;;;;;;;;;;;;5032077;28;19913;-76
2022/11/16 07:43:19;;;;;;;;;;;;;;;;;;5031657;28;20424;-74
2022/11/16 07:45:45;;;;;;;;;;;;;;;;;;5026549;28;19909;-75
2022/11/16 07:48:11;;;;;;;;;;;;;;;;;;5030177;28;19909;-75
2022/11/16 07:50:37;;;;;;;;;;;;;;;;;;5029094;28;19919;-74
2022/11/16 07:53:03;;;;;;;;;;;;;;;;;;5031256;28;19967;-75
2022/11/16 07:55:31;;;;;;;;;;;;;;;;;;5031207;28;19917;-80
2022/11/16 07:57:56;;;;;;;;;;;;;;;;;;5031807;28;19916;-74
2022/11/16 08:00:23;;;;;;;;;;;;;;;;;;5032292;28;20472;-75
2022/11/16 08:02:49;;;;;;;;;;;;;;;;;;5032700;28;20003;-75
2022/11/16 08:05:15;;;;;;;;;;;;;;;;;;5031996;28;20036;-75
2022/11/16 08:07:41;;;;;;;;;;;;;;;;;;5031963;28;19932;-75
2022/11/16 08:10:07;;;;;;;;;;;;;;;;;;5032265;28;20378;-75
2022/11/16 08:12:33;;;;;;;;;;;;;;;;;;5032172;28;20354;-74
2022/11/16 08:14:59;;;;;;;;;;;;;;;;;;5032116;28;19924;-74
2022/11/16 08:17:25;;;;;;;;;;;;;;;;;;5031876;28;19928;-75
2022/11/16 08:19:52;;;;;;;;;;;;;;;;;;5031324;28;20537;-74
2022/11/16 08:22:18;;;;;;;;;;;;;;;;;;5031576;28;20325;-75
2022/11/16 08:24:44;;;;;;;;;;;;;;;;;;5013760;28;19913;-74
2022/11/16 08:27:10;;;;;;;;;;;;;;;;;;5031816;28;19916;-74
2022/11/16 08:29:36;;;;;;;;;;;;;;;;;;5031725;28;20008;-74
2022/11/16 08:32:02;;;;;;;;;;;;;;;;;;5032004;28;19917;-74
2022/11/16 08:34:28;;;;;;;;;;;;;;;;;;5031459;28;19932;-74
2022/11/16 08:36:53;;;;;;;;;;;;;;;;;;5030808;28;19928;-74
2022/11/16 08:39:19;;;;;;;;;;;;;;;;;;5031316;28;20383;-75
2022/11/16 08:41:45;;;;;;;;;;;;;;;;;;5031965;28;19928;-75
2022/11/16 08:44:11;;;;;;;;;;;;;;;;;;5031689;28;19986;-75
2022/11/16 08:46:38;;;;;;;;;;;;;;;;;;5031254;28;20286;-75
2022/11/16 08:49:04;;;;;;;;;;;;;;;;;;5031278;28;19909;-75
2022/11/16 08:51:30;;;;;;;;;;;;;;;;;;5031353;28;19916;-74
2022/11/16 08:53:56;;;;;;;;;;;;;;;;;;5031078;28;20346;-74
2022/11/16 08:56:22;;;;;;;;;;;;;;;;;;5030561;28;20012;-74
2022/11/16 08:58:48;;;;;;;;;;;;;;;;;;5030516;28;19952;-74
2022/11/16 09:01:14;;;;;;;;;;;;;;;;;;5031118;28;19944;-74
2022/11/16 09:03:40;;;;;;;;;;;;;;;;;;5030699;28;19918;-73
2022/11/16 09:06:05;;;;;;;;;;;;;;;;;;5030794;28;19909;-74
2022/11/16 09:08:31;;;;;;;;;;;;;;;;;;5024508;28;19952;-74
2022/11/16 09:10:57;;;;;;;;;;;;;;;;;;5030507;28;19913;-73
2022/11/16 09:13:24;;;;;;;;;;;;;;;;;;5030744;28;20252;-74
2022/11/16 09:15:50;;;;;;;;;;;;;;;;;;5030279;28;19971;-74
2022/11/16 09:18:16;;;;;;;;;;;;;;;;;;5031391;28;19909;-75
2022/11/16 09:20:42;;;;;;;;;;;;;;;;;;5030205;28;19979;-74
2022/11/16 09:23:07;;;;;;;;;;;;;;;;;;5030798;28;19910;-74
2022/11/16 09:25:33;;;;;;;;;;;;;;;;;;5012736;28;20020;-74
2022/11/16 09:27:59;;;;;;;;;;;;;;;;;;5030450;28;19913;-75
2022/11/16 09:30:25;;;;;;;;;;;;;;;;;;5029917;28;19913;-74
2022/11/16 09:32:51;;;;;;;;;;;;;;;;;;5030413;28;19975;-74
2022/11/16 09:35:19;;;;;;;;;;;;;;;;;;5030224;28;20373;-74
2022/11/16 09:37:45;;;;;;;;;;;;;;;;;;5030743;28;19921;-74
2022/11/16 09:40:11;;;;;;;;;;;;;;;;;;5030109;28;19917;-74
2022/11/16 09:42:37;;;;;;;;;;;;;;;;;;5030721;28;19917;-75
2022/11/16 09:45:03;;;;;;;;;;;;;;;;;;5030229;28;19913;-74
2022/11/16 09:47:29;;;;;;;;;;;;;;;;;;5030772;28;19913;-74
2022/11/16 09:49:55;;;;;;;;;;;;;;;;;;5030458;28;19966;-74
2022/11/16 09:52:28;;;;;;;;;;;;;;;;;;5053654;28;19917;-73
2022/11/16 09:54:54;;;;;;;;;;;;;;;;;;5066608;28;19919;-73
2022/11/16 09:57:20;;;;;;;;;;;;;;;;;;5066515;28;19917;-73
2022/11/16 09:59:46;;;;;;;;;;;;;;;;;;5051636;28;19913;-73
2022/11/16 10:02:12;;;;;;;;;;;;;;;;;;5047132;28;19909;-74
2022/11/16 10:04:38;;;;;;;;;;;;;;;;;;5048265;28;19909;-74
2022/11/16 10:07:04;;;;;;;;;;;;;;;;;;5066251;28;19912;-75
2022/11/16 10:09:30;;;;;;;;;;;;;;;;;;5066424;28;19912;-74
2022/11/16 10:11:56;;;;;;;;;;;;;;;;;;5051785;28;19967;-75
2022/11/16 10:14:22;;;;;;;;;;;;;;;;;;5064530;28;19974;-75
2022/11/16 10:16:48;;;;;;;;;;;;;;;;;;5066486;28;19913;-75
2022/11/16 10:19:14;;;;;;;;;;;;;;;;;;5040238;28;19909;-75
2022/11/16 10:21:40;;;;;;;;;;;;;;;;;;5066684;28;19917;-75
2022/11/16 10:24:07;;;;;;;;;;;;;;;;;;5049701;28;19929;-75
2022/11/16 10:26:33;;;;;;;;;;;;;;;;;;5047075;28;19947;-75
2022/11/16 10:28:58;;;;;;;;;;;;;;;;;;5047148;28;19948;-75
2022/11/16 10:31:24;;;;;;;;;;;;;;;;;;5047228;28;20301;-75
2022/11/16 10:33:50;;;;;;;;;;;;;;;;;;5046550;28;19913;-76
2022/11/16 10:36:16;;;;;;;;;;;;;;;;;;5046460;28;20051;-75
2022/11/16 10:38:42;;;;;;;;;;;;;;;;;;5046491;28;19956;-75
2022/11/16 10:41:08;;;;;;;;;;;;;;;;;;5063399;28;20003;-75
2022/11/16 10:43:34;;;;;;;;;;;;;;;;;;5049522;28;20377;-75
2022/11/16 10:46:00;;;;;;;;;;;;;;;;;;5046141;28;20043;-75
2022/11/16 10:48:26;;;;;;;;;;;;;;;;;;5044858;28;19913;-74
2022/11/16 10:50:51;;;;;;;;;;;;;;;;;;5053260;28;19921;-74
2022/11/16 10:53:17;;;;;;;;;;;;;;;;;;5065928;28;19958;-74
2022/11/16 10:55:43;;;;;;;;;;;;;;;;;;5066534;28;19955;-75
2022/11/16 10:58:09;;;;;;;;;;;;;;;;;;5075103;28;19916;-74
2022/11/16 11:00:35;;;;;;;;;;;;;;;;;;5085420;28;19908;-74
2022/11/16 11:03:01;;;;;;;;;;;;;;;;;;5076394;28;19908;-74
2022/11/16 11:05:27;;;;;;;;;;;;;;;;;;5057500;28;19951;-73
2022/11/16 11:07:53;;;;;;;;;;;;;;;;;;5052804;28;19912;-74
2022/11/16 11:10:19;;;;;;;;;;;;;;;;;;5053603;28;19966;-75
2022/11/16 11:12:44;;;;;;;;;;;;;;;;;;5071229;28;19978;-74
2022/11/16 11:15:10;;;;;;;;;;;;;;;;;;5052652;28;20397;-74
2022/11/16 11:17:36;;;;;;;;;;;;;;;;;;5053227;28;19909;-74
2022/11/16 11:20:03;;;;;;;;;;;;;;;;;;5072175;28;19915;-75
2022/11/16 11:22:29;;;;;;;;;;;;;;;;;;5045692;28;19915;-75
2022/11/16 11:24:55;;;;;;;;;;;;;;;;;;5071874;28;19997;-75
2022/11/16 11:27:22;;;;;;;;;;;;;;;;;;5058735;28;19913;-75
2022/11/16 11:29:47;;;;;;;;;;;;;;;;;;5071398;28;19916;-75
2022/11/16 11:32:13;;;;;;;;;;;;;;;;;;5071181;28;19920;-75
2022/11/16 11:34:40;;;;;;;;;;;;;;;;;;5071900;28;20448;-74
2022/11/16 11:37:06;;;;;;;;;;;;;;;;;;5071449;28;19932;-73
2022/11/16 11:39:32;;;;;;;;;;;;;;;;;;5063217;28;19955;-73
2022/11/16 11:41:58;;;;;;;;;;;;;;;;;;5052252;28;20331;-73
2022/11/16 11:44:24;;;;;;;;;;;;;;;;;;5051981;28;19920;-74
2022/11/16 11:46:50;;;;;;;;;;;;;;;;;;5062903;28;20483;-75
2022/11/16 11:49:16;;;;;;;;;;;;;;;;;;5071637;28;19912;-75
2022/11/16 11:51:42;;;;;;;;;;;;;;;;;;5058068;28;20339;-75
2022/11/16 11:54:08;;;;;;;;;;;;;;;;;;5055895;28;19908;-75
2022/11/16 11:56:34;;;;;;;;;;;;;;;;;;5070997;28;19908;-75
2022/11/16 11:59:00;;;;;;;;;;;;;;;;;;5070445;28;19946;-75
2022/11/16 12:01:26;;;;;;;;;;;;;;;;;;5071600;28;19918;-75
2022/11/16 12:03:52;;;;;;;;;;;;;;;;;;5070979;28;19913;-75
2022/11/16 12:06:17;;;;;;;;;;;;;;;;;;5055386;28;20286;-75
2022/11/16 12:08:43;;;;;;;;;;;;;;;;;;5065085;28;19908;-75
2022/11/16 12:11:09;;;;;;;;;;;;;;;;;;5052805;28;19921;-75
2022/11/16 12:13:35;;;;;;;;;;;;;;;;;;5069685;28;20007;-75
2022/11/16 12:16:01;;;;;;;;;;;;;;;;;;5070171;28;19909;-75
2022/11/16 12:18:27;;;;;;;;;;;;;;;;;;5062989;28;19921;-75
2022/11/16 12:20:53;;;;;;;;;;;;;;;;;;5051406;28;20357;-73
2022/11/16 12:23:19;;;;;;;;;;;;;;;;;;5051037;28;20369;-74
2022/11/16 12:25:45;;;;;;;;;;;;;;;;;;5050918;28;19971;-74
2022/11/16 12:28:11;;;;;;;;;;;;;;;;;;5050617;28;19959;-74
2022/11/16 12:30:37;;;;;;;;;;;;;;;;;;5070392;28;20395;-75
2022/11/16 12:33:03;;;;;;;;;;;;;;;;;;5069954;28;19989;-74
2022/11/16 12:35:29;;;;;;;;;;;;;;;;;;5070134;28;19912;-74
2022/11/16 12:37:55;;;;;;;;;;;;;;;;;;5070515;28;20542;-74
2022/11/16 12:40:20;;;;;;;;;;;;;;;;;;5054858;28;19944;-74
2022/11/16 12:42:46;;;;;;;;;;;;;;;;;;5031866;28;20388;-74
2022/11/16 12:45:14;;;;;;;;;;;;;;;;;;5050853;28;19966;-74
2022/11/16 12:47:40;;;;;;;;;;;;;;;;;;5050392;28;19913;-74
2022/11/16 12:50:06;;;;;;;;;;;;;;;;;;5031734;28;19909;-74
2022/11/16 12:52:32;;;;;;;;;;;;;;;;;;5050711;28;19947;-75
2022/11/16 12:54:58;;;;;;;;;;;;;;;;;;5049873;28;20372;-75
2022/11/16 12:57:24;;;;;;;;;;;;;;;;;;5050125;28;19912;-74
2022/11/16 12:59:50;;;;;;;;;;;;;;;;;;5067036;28;19912;-77
2022/11/16 13:02:16;;;;;;;;;;;;;;;;;;5052745;28;19909;-77
2022/11/16 13:04:42;;;;;;;;;;;;;;;;;;5050110;28;19909;-77
2022/11/16 13:07:08;;;;;;;;;;;;;;;;;;5050397;28;20574;-77
2022/11/16 13:09:34;;;;;;;;;;;;;;;;;;5044683;28;19913;-79
2022/11/16 13:12:00;;;;;;;;;;;;;;;;;;5039829;28;19925;-76
2022/11/16 13:14:26;;;;;;;;;;;;;;;;;;5048511;28;20443;-76
2022/11/16 13:16:52;;;;;;;;;;;;;;;;;;5047187;28;19913;-74
2022/11/16 13:19:18;;;;;;;;;;;;;;;;;;5053367;28;19908;-77
2022/11/16 13:21:44;;;;;;;;;;;;;;;;;;5051359;28;19920;-76
2022/11/16 13:24:10;;;;;;;;;;;;;;;;;;5049861;28;20031;-75
2022/11/16 13:26:36;;;;;;;;;;;;;;;;;;5048794;28;20561;-76
2022/11/16 13:29:01;;;;;;;;;;;;;;;;;;5049202;28;19923;-78
2022/11/16 13:31:27;;;;;;;;;;;;;;;;;;5040790;28;20024;-77
2022/11/16 13:33:53;;;;;;;;;;;;;;;;;;5047163;28;20289;-77
2022/11/16 13:36:19;;;;;;;;;;;;;;;;;;5039885;28;19956;-77
2022/11/16 13:38:45;;;;;;;;;;;;;;;;;;5039121;28;19916;-75
2022/11/16 13:41:11;;;;;;;;;;;;;;;;;;5041571;28;19913;-78
2022/11/16 13:43:37;;;;;;;;;;;;;;;;;;5037273;28;20000;-74
2022/11/16 13:46:03;;;;;;;;;;;;;;;;;;5045917;28;20000;-77
2022/11/16 13:48:29;;;;;;;;;;;;;;;;;;5039517;28;19913;-76
2022/11/16 13:50:55;;;;;;;;;;;;;;;;;;5037640;28;20027;-75
2022/11/16 13:53:21;;;;;;;;;;;;;;;;;;5039247;28;20035;-76
2022/11/16 13:55:47;;;;;;;;;;;;;;;;;;5037064;28;19954;-75
2022/11/16 13:58:13;;;;;;;;;;;;;;;;;;5040816;28;20463;-77
2022/11/16 14:00:39;;;;;;;;;;;;;;;;;;5037599;28;19924;-77
2022/11/16 14:03:05;;;;;;;;;;;;;;;;;;5043276;28;20400;-77
2022/11/16 14:05:30;;;;;;;;;;;;;;;;;;5035963;28;20004;-78
2022/11/16 14:07:56;;;;;;;;;;;;;;;;;;5038901;28;20301;-77
2022/11/16 14:10:22;;;;;;;;;;;;;;;;;;5036613;28;19920;-77
2022/11/16 14:12:49;;;;;;;;;;;;;;;;;;5041331;28;20765;-76
2022/11/16 14:15:15;;;;;;;;;;;;;;;;;;5418978;23;19924;-76
2022/11/16 14:17:41;;;;;;;;;;;;;;;;;;4998559;28;19929;-77
2022/11/16 14:20:06;;;;;;;;;;;;;;;;;;5002676;28;20285;-77
2022/11/16 14:22:32;;;;;;;;;;;;;;;;;;5001221;28;19928;-77
2022/11/16 14:24:58;;;;;;;;;;;;;;;;;;5003707;28;19917;-76
2022/11/16 14:27:24;;;;;;;;;;;;;;;;;;4998573;28;19948;-76
2022/11/16 14:29:50;;;;;;;;;;;;;;;;;;5001609;28;19918;-78
2022/11/16 14:32:16;;;;;;;;;;;;;;;;;;5002305;28;19925;-75
2022/11/16 14:34:42;;;;;;;;;;;;;;;;;;5002078;28;20386;-77
2022/11/16 14:37:08;;;;;;;;;;;;;;;;;;4999145;28;20064;-75
2022/11/16 14:39:36;;;;;;;;;;;;;;;;;;5006050;28;20377;-75
2022/11/16 14:42:01;;;;;;;;;;;;;;;;;;5005470;28;19968;-77
2022/11/16 14:44:27;;;;;;;;;;;;;;;;;;5003418;28;20401;-75
2022/11/16 14:46:53;;;;;;;;;;;;;;;;;;5008237;28;20016;-76
2022/11/16 14:49:20;;;;;;;;;;;;;;;;;;5008120;28;19914;-77
2022/11/16 14:51:46;;;;;;;;;;;;;;;;;;5004645;28;19926;-76
2022/11/16 14:54:12;;;;;;;;;;;;;;;;;;5002009;28;19925;-76
2022/11/16 14:56:38;;;;;;;;;;;;;;;;;;5005201;28;19926;-76
2022/11/16 14:59:03;;;;;;;;;;;;;;;;;;5003572;28;19914;-75
2022/11/16 15:01:29;;;;;;;;;;;;;;;;;;5005388;28;19914;-76
2022/11/16 15:03:55;;;;;;;;;;;;;;;;;;5006033;28;19917;-76
2022/11/16 15:06:21;;;;;;;;;;;;;;;;;;5020348;28;20377;-76
2022/11/16 15:08:47;;;;;;;;;;;;;;;;;;5004256;28;19918;-76
2022/11/16 15:11:13;;;;;;;;;;;;;;;;;;5008417;28;20027;-77
2022/11/16 15:13:39;;;;;;;;;;;;;;;;;;5007594;28;19971;-77
2022/11/16 15:16:05;;;;;;;;;;;;;;;;;;5004969;28;20029;-72
2022/11/16 15:18:31;;;;;;;;;;;;;;;;;;5005817;28;19918;-70
2022/11/16 15:20:57;;;;;;;;;;;;;;;;;;5004562;28;19920;-74
2022/11/16 15:23:23;;;;;;;;;;;;;;;;;;5003208;28;19917;-72
2022/11/16 15:25:49;;;;;;;;;;;;;;;;;;5007811;28;19925;-74
2022/11/16 15:28:15;;;;;;;;;;;;;;;;;;5004520;28;19913;-74
2022/11/16 15:30:41;;;;;;;;;;;;;;;;;;5003878;28;19917;-73
2022/11/16 15:33:06;;;;;;;;;;;;;;;;;;5004933;28;19976;-73
2022/11/16 15:35:32;;;;;;;;;;;;;;;;;;5004602;28;19917;-74
2022/11/16 15:37:58;;;;;;;;;;;;;;;;;;5007912;28;20429;-74
2022/11/16 15:40:24;;;;;;;;;;;;;;;;;;5001205;28;19921;-73
2022/11/16 15:42:52;;;;;;;;;;;;;;;;;;5005073;28;19921;-73
2022/11/16 15:45:17;;;;;;;;;;;;;;;;;;5002730;28;20385;-73
2022/11/16 15:47:45;;;;;;;;;;;;;;;;;;5008050;28;19968;-73
2022/11/16 15:50:11;;;;;;;;;;;;;;;;;;5004700;28;19914;-73
2022/11/16 15:52:37;;;;;;;;;;;;;;;;;;5005936;28;19928;-74
2022/11/16 15:55:03;;;;;;;;;;;;;;;;;;5002520;28;19918;-74
2022/11/16 15:57:29;;;;;;;;;;;;;;;;;;5005384;28;19957;-75
2022/11/16 15:59:55;;;;;;;;;;;;;;;;;;5003999;28;19920;-75
2022/11/16 16:02:21;;;;;;;;;;;;;;;;;;5003985;28;20664;-74
2022/11/16 16:04:47;;;;;;;;;;;;;;;;;;5008277;28;19917;-74
2022/11/16 16:07:13;;;;;;;;;;;;;;;;;;5002471;28;19969;-75
2022/11/16 16:09:39;;;;;;;;;;;;;;;;;;5003376;28;19920;-75
2022/11/16 16:12:05;;;;;;;;;;;;;;;;;;5005904;28;19928;-76
2022/11/16 16:14:31;;;;;;;;;;;;;;;;;;5003848;28;19914;-74
2022/11/16 16:16:57;;;;;;;;;;;;;;;;;;5002479;28;19968;-74
2022/11/16 16:19:23;;;;;;;;;;;;;;;;;;5005240;28;19924;-74
2022/11/16 16:21:48;;;;;;;;;;;;;;;;;;5004087;28;20452;-74
2022/11/16 16:24:14;;;;;;;;;;;;;;;;;;5006752;28;19920;-73
2022/11/16 16:26:40;;;;;;;;;;;;;;;;;;5004587;28;19917;-74
2022/11/16 16:29:06;;;;;;;;;;;;;;;;;;5007488;28;19928;-74
2022/11/16 16:31:32;;;;;;;;;;;;;;;;;;5009928;28;19977;-73
2022/11/16 16:33:58;;;;;;;;;;;;;;;;;;5005370;28;19968;-73
2022/11/16 16:36:24;;;;;;;;;;;;;;;;;;5008996;28;19963;-73
2022/11/16 16:38:51;;;;;;;;;;;;;;;;;;5010257;28;19944;-73
2022/11/16 16:41:17;;;;;;;;;;;;;;;;;;5010307;28;19963;-75
2022/11/16 16:43:43;;;;;;;;;;;;;;;;;;5010335;28;20504;-75
2022/11/16 16:46:09;;;;;;;;;;;;;;;;;;5009305;28;19914;-74
2022/11/16 16:48:35;;;;;;;;;;;;;;;;;;5010431;28;20377;-73
2022/11/16 16:51:01;;;;;;;;;;;;;;;;;;5010209;28;19957;-73
2022/11/16 16:53:26;;;;;;;;;;;;;;;;;;5010714;28;20671;-73
2022/11/16 16:55:52;;;;;;;;;;;;;;;;;;5010193;28;19925;-73
2022/11/16 16:58:18;;;;;;;;;;;;;;;;;;5010508;28;19992;-73
2022/11/16 17:00:44;;;;;;;;;;;;;;;;;;5009653;28;19917;-71
2022/11/16 17:03:10;;;;;;;;;;;;;;;;;;5010094;28;20015;-73
2022/11/16 17:05:36;;;;;;;;;;;;;;;;;;5010774;28;19917;-73
2022/11/16 17:08:02;;;;;;;;;;;;;;;;;;5009797;28;19917;-75
2022/11/16 17:10:28;;;;;;;;;;;;;;;;;;5009333;28;19918;-72
2022/11/16 17:12:54;;;;;;;;;;;;;;;;;;5009147;28;19918;-74
2022/11/16 17:15:20;;;;;;;;;;;;;;;;;;5008967;28;20028;-72
2022/11/16 17:17:46;;;;;;;;;;;;;;;;;;5009332;28;19917;-74